Time;durP1;ratioP1;P1;durP2;ratioP2;P2;SDS_P1;SDS_P2;PMS_P1;PMS_P2;Temp;Humidity;BMP_temperature;BMP_pressure;BME280_temperature;BME280_humidity;BME280_pressure;Samples;Min_cycle;Max_cycle;Signal;HPM_P1;HPM_P2
2023/12/03 00:02:24;;;;;;;61.00;28.70;;;;;;;4.95;89.35;97802.40;109646;1251;73774;-58
2023/12/03 00:04:52;;;;;;;107.00;47.00;;;;;;;5.10;89.05;97802.67;109463;1251;67174;-59
2023/12/03 00:07:20;;;;;;;57.80;27.00;;;;;;;5.30;88.79;97774.64;109601;1251;72820;-59
2023/12/03 00:09:48;;;;;;;48.80;23.00;;;;;;;5.34;88.33;97745.71;109451;1255;60850;-60
2023/12/03 00:12:15;;;;;;;37.50;22.50;;;;;;;5.25;88.66;97730.01;109583;1251;60099;-60
2023/12/03 00:14:43;;;;;;;33.10;16.20;;;;;;;5.25;88.60;97721.48;109628;1251;72874;-60
2023/12/03 00:17:11;;;;;;;37.50;18.70;;;;;;;5.19;88.68;97731.33;109582;1251;67167;-62
2023/12/03 00:19:39;;;;;;;39.40;19.10;;;;;;;5.30;88.04;97738.58;109652;1250;70846;-61
2023/12/03 00:22:07;;;;;;;33.80;18.20;;;;;;;5.30;88.09;97724.31;109652;1251;60864;-66
2023/12/03 00:24:35;;;;;;;29.00;16.70;;;;;;;5.34;88.12;97731.94;109649;1250;60046;-65
2023/12/03 00:27:02;;;;;;;34.40;18.10;;;;;;;5.50;87.12;97729.50;109455;1251;73910;-64
2023/12/03 00:29:30;;;;;;;29.40;16.80;;;;;;;5.35;87.40;97701.66;109592;1251;68375;-64
2023/12/03 00:31:57;;;;;;;33.30;16.40;;;;;;;5.36;87.43;97692.66;109612;1251;72486;-66
2023/12/03 00:34:25;;;;;;;23.70;13.10;;;;;;;5.35;87.79;97690.02;109632;1251;59651;-63
2023/12/03 00:36:53;;;;;;;33.00;17.80;;;;;;;5.30;88.07;97692.77;109647;1251;58735;-63
2023/12/03 00:39:20;;;;;;;28.00;14.60;;;;;;;5.28;88.40;97684.89;109598;1251;73832;-63
2023/12/03 00:41:48;;;;;;;24.20;14.30;;;;;;;5.23;88.73;97684.79;109589;1251;68303;-64
2023/12/03 00:44:15;;;;;;;24.00;13.90;;;;;;;5.24;88.66;97689.46;109416;1251;72764;-63
2023/12/03 00:46:43;;;;;;;25.20;14.40;;;;;;;5.32;88.43;97682.70;109573;1251;60684;-65
2023/12/03 00:49:10;;;;;;;22.40;13.50;;;;;;;5.35;88.46;97691.19;109607;1251;59991;-65
2023/12/03 00:51:38;;;;;;;18.50;11.80;;;;;;;5.45;87.78;97688.42;109634;1251;71665;-65
2023/12/03 00:54:05;;;;;;;23.70;14.30;;;;;;;5.49;87.09;97696.28;109645;1251;68770;-65
2023/12/03 00:56:33;;;;;;;16.30;11.10;;;;;;;5.54;86.55;97702.55;109595;1251;72661;-65
2023/12/03 00:59:00;;;;;;;19.50;12.40;;;;;;;5.64;85.76;97706.09;109639;1251;59584;-65
2023/12/03 01:01:28;;;;;;;20.60;11.90;;;;;;;5.70;85.83;97704.59;109587;1251;58751;-65
2023/12/03 01:03:56;;;;;;;22.30;13.10;;;;;;;5.75;85.20;97707.79;109633;1251;73809;-64
2023/12/03 01:06:23;;;;;;;18.30;11.70;;;;;;;5.66;85.27;97714.82;109594;1251;67400;-65
2023/12/03 01:08:51;;;;;;;22.20;13.70;;;;;;;5.60;85.98;97720.36;109578;1251;72626;-66
2023/12/03 01:11:18;;;;;;;20.30;11.10;;;;;;;5.68;85.66;97723.83;109633;1250;59551;-65
2023/12/03 01:14:05;;;;;;;30.70;16.90;;;;;;;5.69;85.44;97725.89;109610;1251;60082;-62
2023/12/03 01:16:33;;;;;;;24.20;14.50;;;;;;;5.70;85.53;97713.96;109621;1252;72566;-64
2023/12/03 01:19:00;;;;;;;23.90;14.70;;;;;;;5.65;85.93;97702.10;109671;1251;68539;-63
2023/12/03 01:21:28;;;;;;;20.30;12.50;;;;;;;5.74;85.71;97700.71;109583;1251;70115;-62
2023/12/03 01:23:55;;;;;;;20.80;13.30;;;;;;;5.73;85.03;97679.95;109602;1253;60874;-61
2023/12/03 01:26:23;;;;;;;21.30;13.80;;;;;;;5.68;84.92;97661.32;109615;1251;59096;-62
2023/12/03 01:28:52;;;;;;;20.80;11.80;;;;;;;5.65;85.44;97659.88;109632;1250;72569;-62
2023/12/03 01:31:20;;;;;;;18.70;11.40;;;;;;;5.66;85.48;97651.63;109594;1251;67247;-64
2023/12/03 01:33:48;;;;;;;19.80;12.30;;;;;;;5.58;85.88;97647.59;109586;1252;72674;-61
2023/12/03 01:36:15;;;;;;;18.40;10.80;;;;;;;5.56;85.70;97637.05;109348;1253;60906;-62
2023/12/03 01:38:43;;;;;;;17.80;9.10;;;;;;;5.45;85.90;97628.02;109588;1253;60072;-60
2023/12/03 01:41:10;;;;;;;19.40;11.00;;;;;;;5.31;87.08;97606.52;109303;1251;73813;-60
2023/12/03 01:43:51;;;;;;;21.10;12.20;;;;;;;5.30;87.02;97584.13;109216;1259;67478;-61
2023/12/03 01:46:20;;;;;;;24.60;15.00;;;;;;;5.30;87.30;97569.55;109604;1251;70864;-62
2023/12/03 01:48:47;;;;;;;25.50;14.70;;;;;;;5.08;88.65;97557.44;109411;1251;60211;-62
2023/12/03 01:51:15;;;;;;;19.50;11.90;;;;;;;5.17;88.66;97574.55;109617;1252;58805;-60
2023/12/03 01:53:43;;;;;;;15.80;10.20;;;;;;;5.21;88.47;97577.86;109593;1251;73871;-61
2023/12/03 01:56:10;;;;;;;30.20;14.30;;;;;;;5.32;87.99;97585.03;109335;1250;68386;-61
2023/12/03 01:58:38;;;;;;;24.60;13.70;;;;;;;5.29;88.29;97557.96;109584;1252;71467;-61
2023/12/03 02:01:06;;;;;;;23.70;15.50;;;;;;;5.25;88.46;97562.74;109598;1253;59573;-61
2023/12/03 02:03:34;;;;;;;23.70;13.70;;;;;;;5.20;88.62;97596.33;109617;1251;60062;-61
2023/12/03 02:06:08;;;;;;;23.50;13.50;;;;;;;5.23;88.84;97614.45;109587;1251;73914;-61
2023/12/03 02:08:36;;;;;;;19.40;11.80;;;;;;;5.08;89.83;97613.05;109352;1251;67792;-61
2023/12/03 02:11:05;;;;;;;21.20;11.20;;;;;;;5.13;89.77;97601.58;109569;1251;72741;-61
2023/12/03 02:13:34;;;;;;;23.10;12.00;;;;;;;5.32;88.18;97569.70;109465;1252;60888;-61
2023/12/03 02:16:02;;;;;;;20.20;11.50;;;;;;;5.40;87.74;97556.87;109578;1251;58191;-61
2023/12/03 02:18:30;;;;;;;21.40;13.40;;;;;;;5.17;89.36;97620.41;109567;1253;73757;-61
2023/12/03 02:20:58;;;;;;;23.50;13.60;;;;;;;5.31;89.43;97626.31;109210;1254;66759;-62
2023/12/03 02:23:29;;;;;;;37.10;17.60;;;;;;;5.63;87.54;97630.13;109332;1254;71787;-61
2023/12/03 02:25:57;;;;;;;28.80;17.70;;;;;;;5.74;86.88;97616.91;109387;1254;61059;-71
2023/12/03 02:28:24;;;;;;;29.80;17.80;;;;;;;5.75;86.67;97630.53;109253;1254;58904;-59
2023/12/03 02:30:52;;;;;;;27.60;16.60;;;;;;;5.62;87.18;97667.65;109433;1254;73845;-58
2023/12/03 02:33:19;;;;;;;24.90;14.80;;;;;;;5.59;87.53;97665.25;109177;1254;68871;-58
2023/12/03 02:35:47;;;;;;;28.40;16.10;;;;;;;5.67;87.25;97645.55;109338;1254;72791;-58
2023/12/03 02:38:15;;;;;;;23.90;14.60;;;;;;;5.74;86.92;97627.46;109300;1254;61404;-58
2023/12/03 02:40:42;;;;;;;28.40;16.60;;;;;;;5.78;86.71;97607.36;109287;1258;59271;-61
2023/12/03 02:43:10;;;;;;;32.10;18.00;;;;;;;5.77;86.49;97617.44;109276;1253;73801;-58
2023/12/03 02:45:37;;;;;;;34.10;19.70;;;;;;;5.77;86.45;97620.35;109186;1254;68669;-58
2023/12/03 02:48:05;;;;;;;28.80;16.90;;;;;;;5.77;86.63;97624.08;109353;1254;72486;-58
2023/12/03 02:50:33;;;;;;;28.20;17.10;;;;;;;5.76;86.35;97616.73;109387;1254;59558;-58
2023/12/03 02:53:01;;;;;;;30.70;15.80;;;;;;;5.81;86.45;97606.88;109577;1257;60001;-58
2023/12/03 02:55:29;;;;;;;29.40;18.00;;;;;;;5.91;86.21;97608.61;109655;1253;72502;-58
2023/12/03 02:57:57;;;;;;;22.30;13.60;;;;;;;5.91;86.01;97612.50;109594;1251;67097;-58
2023/12/03 03:00:24;;;;;;;36.10;19.40;;;;;;;5.92;85.76;97618.63;109293;1251;72652;-59
2023/12/03 03:02:53;;;;;;;32.70;16.50;;;;;;;5.94;85.97;97618.91;109587;1252;59728;-58
2023/12/03 03:05:21;;;;;;;35.80;20.60;;;;;;;5.92;85.98;97621.01;109645;1252;59262;-58
2023/12/03 03:07:48;;;;;;;40.60;19.10;;;;;;;5.89;86.18;97627.58;109612;1250;73848;-60
2023/12/03 03:10:16;;;;;;;33.80;19.20;;;;;;;5.90;85.91;97634.66;109580;1251;67168;-58
2023/12/03 03:12:43;;;;;;;27.80;16.50;;;;;;;5.96;86.10;97625.15;109590;1251;71411;-58
2023/12/03 03:15:11;;;;;;;32.70;17.30;;;;;;;5.93;86.16;97631.15;109604;1253;59590;-58
2023/12/03 03:17:39;;;;;;;29.70;17.30;;;;;;;5.87;86.31;97652.66;109618;1251;58778;-58
2023/12/03 03:20:07;;;;;;;30.50;16.00;;;;;;;5.72;87.18;97661.09;109353;1251;73826;-61
2023/12/03 03:22:34;;;;;;;27.00;15.90;;;;;;;5.69;88.00;97667.38;109600;1251;68553;-58
2023/12/03 03:25:03;;;;;;;28.60;15.60;;;;;;;5.73;87.85;97665.30;109299;1254;72661;-58
2023/12/03 03:27:30;;;;;;;;;;;;;;;5.58;88.81;97665.46;109586;1253;60923;-58
2023/12/03 03:29:58;;;;;;;34.70;17.40;;;;;;;5.52;89.43;97662.39;109632;1251;58534;-58
2023/12/03 03:32:25;;;;;;;35.40;19.50;;;;;;;5.67;88.99;97658.18;109289;1251;73923;-58
2023/12/03 03:34:53;;;;;;;33.50;19.30;;;;;;;5.66;89.04;97658.92;109592;1253;68348;-58
2023/12/03 03:37:20;;;;;;;26.60;15.90;;;;;;;5.72;88.71;97648.48;109579;1250;71584;-58
2023/12/03 03:39:48;;;;;;;35.30;17.50;;;;;;;5.74;88.44;97660.83;109595;1252;59684;-58
2023/12/03 03:42:15;;;;;;;28.70;15.50;;;;;;;5.63;89.40;97666.06;109330;1251;58749;-58
2023/12/03 03:44:43;;;;;;;29.40;16.00;;;;;;;5.41;91.08;97664.36;109577;1253;73824;-58
2023/12/03 03:47:13;;;;;;;34.10;17.10;;;;;;;5.33;91.79;97661.74;109381;1252;68804;-58
2023/12/03 03:49:41;;;;;;;38.30;18.90;;;;;;;5.64;90.21;97664.14;109600;1253;71498;-58
2023/12/03 03:52:09;;;;;;;37.80;19.40;;;;;;;5.73;89.52;97668.18;109577;1252;59558;-59
2023/12/03 03:54:40;;;;;;;39.30;19.90;;;;;;;5.57;90.21;97671.39;109237;1252;58800;-59
2023/12/03 03:57:08;;;;;;;35.50;18.90;;;;;;;5.73;89.66;97670.15;109562;1252;73831;-60
2023/12/03 03:59:36;;;;;;;46.70;25.20;;;;;;;5.76;89.49;97680.09;109663;1253;68428;-59
2023/12/03 04:02:04;;;;;;;39.70;21.30;;;;;;;5.65;90.30;97677.66;109322;1253;72782;-60
2023/12/03 04:04:31;;;;;;;39.20;21.70;;;;;;;5.63;90.50;97665.05;109586;1255;60847;-58
2023/12/03 04:06:59;;;;;;;44.00;21.50;;;;;;;5.84;89.40;97657.09;109647;1253;58810;-59
2023/12/03 04:09:27;;;;;;;36.80;19.40;;;;;;;5.78;89.59;97641.07;109577;1253;73669;-60
2023/12/03 04:11:54;;;;;;;39.30;20.40;;;;;;;5.69;90.03;97640.44;109589;1252;67891;-59
2023/12/03 04:14:22;;;;;;;41.90;22.40;;;;;;;5.51;91.79;97645.89;109553;1253;71544;-59
2023/12/03 04:16:50;;;;;;;35.50;20.70;;;;;;;5.47;92.46;97649.56;109294;1252;59971;-59
2023/12/03 04:19:17;;;;;;;40.20;19.90;;;;;;;5.48;92.66;97642.60;109616;1252;58812;-59
2023/12/03 04:21:45;;;;;;;34.50;15.90;;;;;;;5.79;90.87;97643.08;109591;1252;72889;-60
2023/12/03 04:24:13;;;;;;;33.60;15.40;;;;;;;5.44;92.77;97650.64;109530;1253;68417;-58
2023/12/03 04:26:43;;;;;;;35.90;17.70;;;;;;;5.64;91.97;97649.82;109566;1251;71091;-60
2023/12/03 04:29:11;;;;;;;29.60;17.70;;;;;;;5.79;90.92;97655.39;109276;1253;59584;-58
2023/12/03 04:31:39;;;;;;;34.60;18.00;;;;;;;5.80;90.91;97659.45;109574;1252;59488;-58
2023/12/03 04:34:07;;;;;;;34.20;17.90;;;;;;;5.78;91.08;97657.63;109621;1253;72341;-59
2023/12/03 04:36:35;;;;;;;35.50;18.80;;;;;;;5.82;91.16;97653.84;109566;1252;67450;-59
2023/12/03 04:39:04;;;;;;;34.90;18.90;;;;;;;5.93;90.28;97642.98;109572;1253;71065;-59
2023/12/03 04:41:36;;;;;;;33.10;18.40;;;;;;;5.63;92.48;97646.09;109575;1257;59868;-59
2023/12/03 04:44:04;;;;;;;37.10;19.50;;;;;;;5.80;91.41;97646.34;109472;1257;58796;-59
2023/12/03 04:46:32;;;;;;;42.20;21.90;;;;;;;5.93;90.85;97647.58;109587;1251;72584;-60
2023/12/03 04:48:59;;;;;;;39.00;20.80;;;;;;;5.50;94.77;97654.52;109642;1251;68360;-59
2023/12/03 04:51:27;;;;;;;45.10;26.00;;;;;;;5.62;94.70;97663.82;109619;1253;72663;-59
2023/12/03 04:53:54;;;;;;;30.20;17.70;;;;;;;5.59;95.37;97668.83;109328;1251;59165;-60
2023/12/03 04:56:22;;;;;;;30.60;15.60;;;;;;;5.68;95.05;97665.20;109578;1251;58804;-59
2023/12/03 04:58:49;;;;;;;25.50;15.40;;;;;;;5.72;95.09;97666.15;109610;1251;73867;-60
2023/12/03 05:01:17;;;;;;;28.20;17.30;;;;;;;5.94;93.21;97660.11;109532;1251;67300;-59
2023/12/03 05:03:45;;;;;;;29.90;18.30;;;;;;;5.81;94.32;97661.99;109611;1253;72610;-60
2023/12/03 05:06:13;;;;;;;27.20;16.60;;;;;;;5.84;94.49;97664.34;109591;1251;60890;-62
2023/12/03 05:08:40;;;;;;;26.50;14.10;;;;;;;5.81;94.32;97666.04;109286;1251;60137;-59
2023/12/03 05:11:08;;;;;;;29.50;19.20;;;;;;;5.74;95.22;97677.87;109625;1251;73041;-60
2023/12/03 05:13:36;;;;;;;25.10;15.80;;;;;;;5.83;95.22;97681.10;109580;1251;68461;-61
2023/12/03 05:16:07;;;;;;;24.20;16.20;;;;;;;6.03;93.68;97685.40;109617;1251;72068;-60
2023/12/03 05:18:34;;;;;;;26.80;17.30;;;;;;;5.76;95.32;97685.96;109612;1253;59605;-60
2023/12/03 05:21:02;;;;;;;30.20;18.50;;;;;;;6.09;93.59;97688.70;109635;1251;59997;-62
2023/12/03 05:23:30;;;;;;;33.10;21.10;;;;;;;5.99;94.19;97698.13;109625;1251;73844;-60
2023/12/03 05:25:57;;;;;;;33.90;19.90;;;;;;;5.95;94.13;97708.65;109616;1251;66531;-60
2023/12/03 05:28:25;;;;;;;15.90;9.70;;;;;;;5.78;95.58;97712.58;109515;1251;72421;-61
2023/12/03 05:30:52;;;;;;;18.10;12.20;;;;;;;5.50;98.28;97714.11;109566;1253;60863;-60
2023/12/03 05:33:20;;;;;;;24.10;11.70;;;;;;;5.73;96.57;97727.06;109584;1253;58719;-63
2023/12/03 05:35:48;;;;;;;25.10;16.10;;;;;;;5.77;96.34;97735.74;109560;1252;72572;-62
2023/12/03 05:38:15;;;;;;;22.60;14.50;;;;;;;5.92;95.29;97747.03;109535;1254;68369;-65
2023/12/03 05:40:42;;;;;;;22.00;14.10;;;;;;;6.09;93.20;97745.65;109540;1252;72526;-65
2023/12/03 05:43:10;;;;;;;14.50;10.50;;;;;;;6.23;91.89;97752.23;109413;1254;104019;-62
2023/12/03 05:45:37;;;;;;;16.30;11.20;;;;;;;6.24;91.14;97757.67;109564;1252;59939;-63
2023/12/03 05:48:05;;;;;;;10.90;8.50;;;;;;;6.00;92.19;97762.21;109585;1252;73837;-62
2023/12/03 05:50:33;;;;;;;10.30;9.10;;;;;;;6.07;91.30;97771.23;109525;1253;68500;-63
2023/12/03 05:53:00;;;;;;;10.90;7.40;;;;;;;5.81;92.13;97772.27;109530;1253;72289;-64
2023/12/03 05:55:28;;;;;;;10.50;8.40;;;;;;;5.99;90.50;97771.96;109529;1252;60796;-61
2023/12/03 05:57:55;;;;;;;9.00;7.10;;;;;;;5.76;91.37;97782.66;109546;1254;58089;-65
2023/12/03 06:00:23;;;;;;;8.20;7.00;;;;;;;5.95;90.02;97796.63;109553;1253;73827;-61
2023/12/03 06:02:50;;;;;;;8.90;7.50;;;;;;;5.96;89.92;97802.59;109585;1252;68430;-61
2023/12/03 06:05:18;;;;;;;10.10;8.50;;;;;;;5.94;89.54;97798.06;109545;1252;71425;-64
2023/12/03 06:07:46;;;;;;;33.10;16.50;;;;;;;5.61;91.07;97808.14;109543;1252;59788;-61
2023/12/03 06:10:13;;;;;;;9.20;7.40;;;;;;;5.78;89.64;97804.43;109358;1253;60074;-61
2023/12/03 06:12:41;;;;;;;11.60;9.80;;;;;;;5.81;89.49;97813.70;109583;1252;73836;-63
2023/12/03 06:15:09;;;;;;;9.00;7.60;;;;;;;5.69;89.95;97816.45;109342;1251;68410;-65
2023/12/03 06:17:36;;;;;;;9.60;8.00;;;;;;;5.85;88.88;97832.30;109234;1253;72324;-64
2023/12/03 06:20:04;;;;;;;8.00;6.90;;;;;;;6.11;86.81;97839.50;109562;1253;59592;-64
2023/12/03 06:22:32;;;;;;;8.80;7.90;;;;;;;6.06;86.53;97838.60;109489;1253;58936;-65
2023/12/03 06:24:59;;;;;;;8.30;7.30;;;;;;;5.75;88.56;97849.95;109563;1253;73835;-67
2023/12/03 06:27:27;;;;;;;13.40;11.00;;;;;;;5.75;89.00;97848.56;109525;1253;68410;-64
2023/12/03 06:29:54;;;;;;;8.30;7.50;;;;;;;6.03;87.04;97851.34;109424;1254;72651;-64
2023/12/03 06:32:22;;;;;;;13.10;11.70;;;;;;;5.94;86.92;97865.86;109528;1254;60887;-61
2023/12/03 06:34:49;;;;;;;12.30;9.70;;;;;;;5.88;87.01;97868.08;109518;1253;59982;-62
2023/12/03 06:37:17;;;;;;;7.80;7.00;;;;;;;5.91;87.07;97872.77;109589;1254;73875;-65
2023/12/03 06:39:44;;;;;;;17.50;14.40;;;;;;;5.96;86.81;97880.95;109542;1253;67970;-63
2023/12/03 06:42:12;;;;;;;8.50;7.20;;;;;;;5.64;87.84;97882.94;109601;1253;71379;-60
2023/12/03 06:44:40;;;;;;;8.80;7.30;;;;;;;5.57;88.50;97889.30;109596;1253;59749;-61
2023/12/03 06:47:11;;;;;;;8.20;7.30;;;;;;;5.77;87.20;97888.02;109510;1253;59700;-63
2023/12/03 06:49:41;;;;;;;13.70;10.30;;;;;;;5.93;85.95;97893.75;109577;1253;73846;-62
2023/12/03 06:52:09;;;;;;;9.80;7.20;;;;;;;5.73;86.97;97884.60;109551;1253;68398;-64
2023/12/03 06:54:36;;;;;;;8.70;7.70;;;;;;;5.87;86.47;97903.77;109592;1253;72674;-64
2023/12/03 06:57:04;;;;;;;6.90;6.20;;;;;;;6.02;85.06;97903.79;109575;1253;59547;-65
2023/12/03 06:59:31;;;;;;;39.70;33.40;;;;;;;5.93;84.75;97916.45;109579;1254;60011;-63
2023/12/03 07:01:59;;;;;;;9.30;8.30;;;;;;;5.91;84.62;97923.42;109541;1253;73874;-64
2023/12/03 07:04:26;;;;;;;9.30;8.30;;;;;;;5.69;86.55;97934.64;109254;1254;68332;-65
2023/12/03 07:06:54;;;;;;;11.60;8.70;;;;;;;5.71;87.00;97947.21;109550;1253;70469;-66
2023/12/03 07:09:21;;;;;;;56.30;22.00;;;;;;;5.34;88.38;97945.25;109553;1254;60917;-68
2023/12/03 07:12:07;;;;;;;51.40;26.40;;;;;;;5.11;87.25;97963.90;109611;1253;60014;-66
2023/12/03 07:14:35;;;;;;;43.20;21.30;;;;;;;5.10;87.03;97965.86;109270;1254;72713;-66
2023/12/03 07:17:02;;;;;;;30.80;18.00;;;;;;;4.94;86.17;97970.44;109582;1254;66797;-68
2023/12/03 07:19:30;;;;;;;27.60;17.40;;;;;;;4.95;85.61;97978.70;109548;1254;71372;-64
2023/12/03 07:21:58;;;;;;;20.90;14.40;;;;;;;4.99;85.12;97980.73;109548;1253;60878;-65
2023/12/03 07:24:25;;;;;;;18.90;12.30;;;;;;;5.07;83.07;97986.27;109529;1253;60008;-66
2023/12/03 07:26:53;;;;;;;16.50;12.30;;;;;;;4.92;82.54;97986.16;109566;1252;73876;-63
2023/12/03 07:29:20;;;;;;;22.90;14.50;;;;;;;4.69;83.20;97979.61;109327;1257;67092;-63
2023/12/03 07:31:48;;;;;;;19.30;13.20;;;;;;;4.96;81.93;97997.74;109562;1253;72676;-64
2023/12/03 07:34:15;;;;;;;43.10;21.40;;;;;;;4.69;83.46;97996.73;109336;1253;60816;-63
2023/12/03 07:36:43;;;;;;;37.70;20.80;;;;;;;4.67;83.20;97998.80;109245;1252;58795;-63
2023/12/03 07:39:10;;;;;;;20.50;15.40;;;;;;;4.86;81.71;98012.66;109151;1254;72676;-63
2023/12/03 07:41:39;;;;;;;;;;;;;;;4.38;83.40;98027.27;109577;1253;67655;-64
2023/12/03 07:44:06;;;;;;;23.00;15.80;;;;;;;4.68;82.03;98038.13;109537;1252;71398;-63
2023/12/03 07:46:34;;;;;;;28.10;13.90;;;;;;;4.82;80.37;98042.14;109536;1252;60865;-63
2023/12/03 07:49:01;;;;;;;21.90;16.30;;;;;;;4.84;79.43;98020.30;109497;1252;58787;-60
2023/12/03 07:51:30;;;;;;;22.10;17.40;;;;;;;4.41;80.11;98017.06;109547;1253;72630;-61
2023/12/03 07:53:58;;;;;;;19.10;16.10;;;;;;;4.15;81.91;98039.14;109511;1252;68349;-61
2023/12/03 07:56:38;;;;;;;20.20;16.40;;;;;;;4.07;82.26;98048.83;109539;1252;72738;-61
2023/12/03 07:59:06;;;;;;;24.60;15.80;;;;;;;4.21;82.22;98068.56;109549;1252;59648;-65
2023/12/03 08:01:34;;;;;;;19.50;13.60;;;;;;;4.20;81.22;98066.77;109564;1252;59991;-61
2023/12/03 08:04:03;;;;;;;25.80;17.60;;;;;;;4.25;80.84;98076.06;109509;1254;73845;-60
2023/12/03 08:06:32;;;;;;;23.40;16.00;;;;;;;4.26;81.02;98071.04;109147;1255;68719;-60
2023/12/03 08:09:00;;;;;;;22.70;14.20;;;;;;;4.03;81.97;98087.28;109193;1254;71468;-60
2023/12/03 08:11:27;;;;;;;20.80;16.30;;;;;;;4.41;80.34;98106.67;109159;1257;59629;-60
2023/12/03 08:13:55;;;;;;;28.50;14.10;;;;;;;4.05;81.62;98097.83;109202;1254;58251;-60
2023/12/03 08:16:23;;;;;;;25.10;16.40;;;;;;;4.05;80.91;98109.51;109171;1254;73022;-60
2023/12/03 08:18:50;;;;;;;25.60;17.20;;;;;;;4.23;79.95;98134.95;109178;1256;67135;-62
2023/12/03 08:21:18;;;;;;;27.00;17.10;;;;;;;3.88;80.72;98138.55;109074;1255;71476;-59
2023/12/03 08:23:45;;;;;;;23.80;17.40;;;;;;;3.85;81.03;98136.53;109289;1257;59562;-59
2023/12/03 08:26:13;;;;;;;32.30;19.70;;;;;;;3.92;80.70;98152.08;109182;1254;59991;-59
2023/12/03 08:28:40;;;;;;;31.00;22.90;;;;;;;3.69;80.94;98177.97;109155;1255;72630;-59
2023/12/03 08:31:08;;;;;;;32.60;19.20;;;;;;;3.67;80.95;98180.27;109306;1254;68160;-59
2023/12/03 08:33:35;;;;;;;29.60;20.30;;;;;;;3.84;79.58;98178.30;109281;1255;72651;-62
2023/12/03 08:36:03;;;;;;;31.00;20.80;;;;;;;3.75;80.29;98191.34;109311;1256;59613;-60
2023/12/03 08:38:31;;;;;;;34.50;20.40;;;;;;;3.86;79.56;98197.61;109466;1252;60100;-59
2023/12/03 08:40:58;;;;;;;30.50;19.70;;;;;;;3.81;79.61;98202.42;109532;1252;73837;-59
2023/12/03 08:43:26;;;;;;;31.40;21.10;;;;;;;3.68;80.22;98198.06;109514;1252;67499;-59
2023/12/03 08:45:53;;;;;;;33.30;20.90;;;;;;;3.79;79.34;98222.81;109336;1252;71438;-61
2023/12/03 08:48:21;;;;;;;39.20;26.40;;;;;;;3.82;79.26;98225.14;109453;1253;58799;-59
2023/12/03 08:50:49;;;;;;;29.60;18.50;;;;;;;3.82;79.26;98227.06;109584;1253;59989;-60
2023/12/03 08:53:17;;;;;;;27.60;18.70;;;;;;;3.73;78.55;98215.97;109240;1253;73387;-59
2023/12/03 08:55:45;;;;;;;31.10;20.40;;;;;;;3.38;80.50;98230.11;109268;1253;68512;-59
2023/12/03 08:58:12;;;;;;;30.60;21.40;;;;;;;3.29;80.66;98210.01;109495;1252;72758;-59
2023/12/03 09:00:40;;;;;;;30.40;18.60;;;;;;;3.68;78.63;98230.77;109525;1254;59768;-60
2023/12/03 09:03:07;;;;;;;31.50;17.50;;;;;;;3.59;78.05;98238.52;109332;1253;60003;-59
2023/12/03 09:05:35;;;;;;;25.80;16.90;;;;;;;3.60;78.14;98248.35;109557;1252;73829;-60
2023/12/03 09:08:03;;;;;;;29.90;17.50;;;;;;;3.80;77.11;98262.27;109538;1253;67015;-60
2023/12/03 09:10:30;;;;;;;32.00;19.90;;;;;;;3.86;76.43;98272.41;109218;1253;72671;-59
2023/12/03 09:12:58;;;;;;;32.20;18.90;;;;;;;3.86;75.43;98289.23;109524;1252;59579;-59
2023/12/03 09:15:25;;;;;;;30.20;20.30;;;;;;;3.46;76.64;98281.59;109373;1252;59019;-60
2023/12/03 09:17:53;;;;;;;36.80;23.20;;;;;;;3.72;75.92;98292.28;109537;1253;73847;-60
2023/12/03 09:20:20;;;;;;;36.30;18.80;;;;;;;3.37;76.75;98299.69;109177;1253;67189;-60
2023/12/03 09:22:48;;;;;;;21.60;14.20;;;;;;;3.56;75.59;98309.80;109495;1251;70221;-59
2023/12/03 09:25:16;;;;;;;29.00;17.70;;;;;;;3.91;73.38;98317.45;108811;1252;1002127;-60
2023/12/03 09:27:44;;;;;;;29.90;17.60;;;;;;;3.80;73.29;98321.67;109502;1252;60442;-59
2023/12/03 09:30:11;;;;;;;20.00;13.30;;;;;;;3.65;73.72;98323.70;109398;1253;73768;-59
2023/12/03 09:32:39;;;;;;;17.70;12.00;;;;;;;3.74;71.12;98337.02;109440;1252;68388;-59
2023/12/03 09:35:07;;;;;;;13.70;11.40;;;;;;;3.35;70.68;98329.91;109544;1252;72645;-58
2023/12/03 09:37:34;;;;;;;22.20;14.40;;;;;;;3.42;70.67;98337.07;109213;1253;60918;-59
2023/12/03 09:40:03;;;;;;;16.00;11.30;;;;;;;3.52;69.62;98335.78;109520;1251;58939;-59
2023/12/03 09:42:32;;;;;;;16.20;13.80;;;;;;;3.58;68.10;98341.67;109557;1252;72759;-60
2023/12/03 09:45:01;;;;;;;16.70;11.30;;;;;;;3.23;69.40;98352.10;109421;1251;67259;-59
2023/12/03 09:47:28;;;;;;;16.80;12.10;;;;;;;3.04;69.18;98343.72;109502;1252;72684;-60
2023/12/03 09:49:57;;;;;;;20.20;15.60;;;;;;;3.21;69.43;98369.41;109412;1252;60928;-60
2023/12/03 09:52:24;;;;;;;17.00;12.10;;;;;;;3.37;68.23;98377.61;109538;1252;58734;-62
2023/12/03 09:54:53;;;;;;;19.00;13.30;;;;;;;3.70;67.10;98381.86;109394;1253;73033;-60
2023/12/03 09:57:21;;;;;;;19.10;12.50;;;;;;;3.82;67.33;98389.81;109535;1253;67115;-59
2023/12/03 09:59:49;;;;;;;23.60;14.40;;;;;;;3.78;65.77;98394.30;109407;1252;71398;-58
2023/12/03 10:02:17;;;;;;;13.70;9.00;;;;;;;3.34;66.53;98394.73;109532;1253;60889;-59
2023/12/03 10:04:44;;;;;;;16.80;13.80;;;;;;;3.59;65.46;98392.90;109418;1251;59989;-59
2023/12/03 10:07:12;;;;;;;18.10;12.50;;;;;;;3.90;65.04;98402.06;109609;1252;73964;-59
2023/12/03 10:09:40;;;;;;;19.50;12.60;;;;;;;3.67;63.57;98404.88;109532;1252;67510;-59
2023/12/03 10:12:08;;;;;;;27.90;15.30;;;;;;;3.51;63.71;98420.75;109410;1252;71482;-59
2023/12/03 10:14:37;;;;;;;;;;;;;;;3.48;63.80;98422.20;109512;1252;63115;-59
2023/12/03 10:17:04;;;;;;;18.60;13.30;;;;;;;3.48;63.50;98431.67;109228;1253;61993;-59
2023/12/03 10:19:32;;;;;;;16.90;13.10;;;;;;;3.47;63.32;98430.88;109468;1252;76146;-58
2023/12/03 10:21:59;;;;;;;20.20;16.10;;;;;;;3.40;63.02;98432.60;109336;1252;67272;-61
2023/12/03 10:24:27;;;;;;;18.60;12.60;;;;;;;3.76;61.63;98437.86;109547;1252;74911;-59
2023/12/03 10:26:56;;;;;;;13.00;9.60;;;;;;;3.52;62.07;98447.96;109534;1252;60829;-59
2023/12/03 10:29:23;;;;;;;14.40;10.50;;;;;;;3.59;61.87;98448.73;109578;1252;60058;-59
2023/12/03 10:31:51;;;;;;;17.00;12.20;;;;;;;3.73;61.42;98458.17;109567;1252;73871;-58
2023/12/03 10:34:22;;;;;;;17.50;11.10;;;;;;;3.38;61.99;98452.34;108395;1253;1002898;-60
2023/12/03 10:36:50;;;;;;;13.60;9.40;;;;;;;3.78;60.79;98462.09;109570;1252;71894;-61
2023/12/03 10:39:18;;;;;;;13.40;10.10;;;;;;;3.59;60.29;98447.73;109535;1252;60823;-59
2023/12/03 10:41:46;;;;;;;18.20;11.50;;;;;;;3.58;61.12;98453.42;109132;1255;60111;-59
2023/12/03 10:44:17;;;;;;;23.60;13.40;;;;;;;3.65;60.40;98456.77;109274;1255;73829;-59
2023/12/03 10:46:45;;;;;;;18.90;11.20;;;;;;;3.59;60.08;98455.85;109296;1253;67668;-59
2023/12/03 10:49:12;;;;;;;30.50;26.50;;;;;;;3.28;61.18;98468.37;109105;1254;71449;-60
2023/12/03 10:51:41;;;;;;;25.30;19.90;;;;;;;3.38;60.74;98476.25;109113;1254;60547;-59
2023/12/03 10:54:09;;;;;;;51.60;30.60;;;;;;;3.34;61.23;98480.77;109292;1254;60027;-59
2023/12/03 10:56:37;;;;;;;;;;;;;;;3.63;60.35;98492.06;109369;1254;73834;-59
2023/12/03 10:59:09;;;;;;;19.40;14.20;;;;;;;3.35;60.77;98485.02;109335;1254;67101;-58
2023/12/03 11:01:47;;;;;;;16.20;12.70;;;;;;;3.04;62.85;98500.13;109323;1254;71328;-58
2023/12/03 11:04:34;;;;;;;19.70;11.60;;;;;;;3.31;62.70;98502.01;109245;1254;60869;-58
2023/12/03 11:07:04;;;;;;;20.50;16.30;;;;;;;3.53;61.50;98519.28;109248;1254;60010;-58
2023/12/03 11:09:32;;;;;;;17.60;12.30;;;;;;;3.45;61.62;98526.91;109321;1254;73822;-61
2023/12/03 11:11:59;;;;;;;18.30;12.80;;;;;;;3.19;61.55;98535.23;109126;1254;67423;-59
2023/12/03 11:14:27;;;;;;;38.20;28.30;;;;;;;2.72;62.72;98534.16;109164;1254;75005;-58
2023/12/03 11:17:16;;;;;;;40.70;27.40;;;;;;;2.81;62.40;98540.63;109292;1255;59937;-59
2023/12/03 11:19:47;;;;;;;28.70;21.90;;;;;;;2.81;62.93;98547.52;109231;1253;60004;-59
2023/12/03 11:22:37;;;;;;;17.00;12.70;;;;;;;3.03;63.02;98559.17;109285;1253;72572;-58
2023/12/03 11:25:07;;;;;;;11.80;10.60;;;;;;;2.74;64.10;98559.90;109565;1253;67707;-58